LFKJ

Ajaccio-Napoléon Bonaparte Airport

Airport
ICAO code
LFKJ
IATA Code
AJA
Summary
ICAO Region
EUR
ICAO Territory
Location

Ajaccio, Corse

Serving
Ajaccio
Elevation
18 ft
Coordinates
41° 55' 25" N , 8° 48' 11" E
KCC
Metar
Observation
LFKJ 030200Z AUTO 04006KT 010V090 CAVOK 10/06 Q1009 TEMPO SHRA FEW030CB BKN060
Station
Ajaccio
Date/Time
2022-12-03 02:00:00
Wind direction
40°
Wind speed
06 kts
Lowest cloud amount
few clouds
Temperature
10°C
Dew point
6°C
Humidity
76%
QNH
1009 hPa
Weather condition
n/a

Runways

Designator Length Width Surface Rops
2/20 2407 45 ASP Yes/Yes

Airport map

Aerial View

SKYbrary Partners:

Safety knowledge contributed by: